SV1LH-1 Melissia GR current weather conditions

sailwx.info

Wind from 135 at 2 knots gusting 3

Air temperature 25.0° C
Dewpoint 10.1° C

Last reported at 2015-Aug-30 04:55 UTC.
Time now 2015-Aug-30 05:54 UTC

Location: N 38°03' E 023°51'.
View on Google Maps.

See reports from other nearby stations

  
Tides and Currents Weather Stations Pressure Air Temp Water Temp Dewpoint Dewpoint Depression Visibility Wind Speed Wind Dir Waves Ship Positions
date/time (UTC)wind fromknots sea level pressurealtimeterstation pressurevisibilityair tempwater tempwave heightnotes
2015-Aug-30 04:55 135 2 gusting 3 25.0
2015-Aug-30 04:50 022 6 gusting 10 25.0
2015-Aug-30 04:45 315 5 gusting 7 25.0
2015-Aug-30 04:40 315 4 gusting 7 24.4
2015-Aug-30 04:35 24.4
2015-Aug-30 04:30 23.9
2015-Aug-30 04:25 247 1 gusting 3 23.3
2015-Aug-30 04:20 022 5 gusting 7 23.9
2015-Aug-30 04:15 022 9 gusting 13 23.3
2015-Aug-30 04:10 090 7 gusting 13 23.3
2015-Aug-30 04:05 067 6 gusting 9 23.3
2015-Aug-30 04:00 067 4 gusting 6 23.9
2015-Aug-30 03:55 315 8 gusting 13 23.9
2015-Aug-30 03:50 022 10 gusting 13 23.9
2015-Aug-30 03:45 022 12 gusting 18 23.3
2015-Aug-30 03:40 022 8 gusting 13 23.3
2015-Aug-30 03:35 022 6 gusting 12 23.9
2015-Aug-30 03:30 23.9
2015-Aug-30 03:25 23.9
2015-Aug-30 03:20 157 4 gusting 11 23.9
2015-Aug-30 03:15 157 7 gusting 13 23.9
2015-Aug-30 03:10 045 5 gusting 11 23.9
2015-Aug-30 03:05 045 7 gusting 12 23.9
2015-Aug-30 03:00 23.9
2015-Aug-30 02:55 23.9
2015-Aug-30 02:50 022 9 gusting 13 23.9
2015-Aug-30 02:45 022 8 gusting 13 23.9
2015-Aug-30 02:40 23.9
2015-Aug-30 02:35 23.9
2015-Aug-30 02:30 045 8 gusting 12 23.9
2015-Aug-30 02:25 337 6 gusting 7 23.9
2015-Aug-30 02:20 315 6 gusting 9 23.9
2015-Aug-30 02:15 067 5 gusting 6 23.3
2015-Aug-30 02:10 23.3
2015-Aug-30 02:05 337 6 gusting 11 23.3
2015-Aug-30 02:00 315 3 gusting 6 23.3
2015-Aug-30 01:55 23.3
2015-Aug-30 01:50 022 6 gusting 10 23.3
2015-Aug-30 01:45 315 4 gusting 8 23.3
2015-Aug-30 01:40 23.3
2015-Aug-30 01:35 045 7 gusting 18 23.3
2015-Aug-30 01:30 292 4 gusting 7 23.3
2015-Aug-30 01:25 270 2 gusting 3 23.3
2015-Aug-30 01:20 045 8 gusting 13 23.3
2015-Aug-30 01:15 270 3 gusting 5 23.3
2015-Aug-30 01:10 23.3
2015-Aug-30 01:05 045 2 gusting 5 23.3
2015-Aug-30 01:00 090 2 gusting 5 23.3
2015-Aug-30 00:55 045 3 gusting 8 23.3
2015-Aug-30 00:50 045 9 gusting 18 23.3
2015-Aug-30 00:45 045 2 gusting 9 23.9
2015-Aug-30 00:40 112 4 gusting 6 23.9
2015-Aug-30 00:35 270 4 gusting 10 23.9
2015-Aug-30 00:30 23.9
2015-Aug-30 00:25 045 10 gusting 15 23.9
2015-Aug-30 00:20 045 5 gusting 12 23.9
2015-Aug-30 00:15 23.9
2015-Aug-30 00:10 23.9
2015-Aug-30 00:05 315 7 gusting 12 23.9
2015-Aug-30 00:00 045 15 gusting 23 23.9
2015-Aug-29 23:55 045 6 gusting 10 23.9
2015-Aug-29 23:50 23.9
2015-Aug-29 23:45 022 7 gusting 13 23.9
2015-Aug-29 23:40 022 9 gusting 13 23.9
2015-Aug-29 23:35 045 10 gusting 18 23.9
2015-Aug-29 23:30 045 3 gusting 6 24.4
2015-Aug-29 23:25 045 8 gusting 18 24.4
2015-Aug-29 23:20 045 9 gusting 13 23.9
2015-Aug-29 23:15 067 8 gusting 12 23.9
2015-Aug-29 23:10 045 7 gusting 15 24.4
2015-Aug-29 23:05 067 12 gusting 22 23.9
2015-Aug-29 23:00 23.9
2015-Aug-29 22:55 23.9
2015-Aug-29 22:50 045 7 gusting 13 23.9
2015-Aug-29 22:45 090 6 gusting 13 23.9
2015-Aug-29 22:40 23.9
2015-Aug-29 22:35 022 8 gusting 19 23.9
2015-Aug-29 22:30 045 9 gusting 13 23.9
2015-Aug-29 22:25 135 6 gusting 8 23.9
2015-Aug-29 22:20 090 9 gusting 14 23.9
2015-Aug-29 22:15 022 5 gusting 8 23.9
2015-Aug-29 22:10 045 9 gusting 15 23.9
2015-Aug-29 22:05 270 4 gusting 6 23.9
2015-Aug-29 22:00 022 9 gusting 14 23.9
2015-Aug-29 21:55 135 6 gusting 8 23.9
2015-Aug-29 21:50 247 13 gusting 24 23.9
2015-Aug-29 21:45 23.9
2015-Aug-29 21:40 045 9 gusting 14 23.9
2015-Aug-29 21:35 23.9
2015-Aug-29 21:30 022 6 gusting 12 23.9
2015-Aug-29 21:25 045 6 gusting 13 23.9
2015-Aug-29 21:20 23.9
2015-Aug-29 21:15 022 7 gusting 12 23.9
2015-Aug-29 21:10 045 10 gusting 18 23.9
2015-Aug-29 21:05 23.9
2015-Aug-29 21:00 045 5 gusting 9 23.9
2015-Aug-29 20:55 067 6 gusting 10 23.9
2015-Aug-29 20:50 337 3 gusting 6 23.9
2015-Aug-29 20:45 135 10 gusting 17 23.9
2015-Aug-29 20:40 23.9
2015-Aug-29 20:35 112 3 gusting 6 23.9
2015-Aug-29 20:30 090 3 gusting 6 23.9
2015-Aug-29 20:25 292 4 gusting 8 23.9
2015-Aug-29 20:20 180 3 gusting 5 23.9
2015-Aug-29 20:15 157 8 gusting 18 23.9
2015-Aug-29 20:10 180 3 gusting 4 23.9
2015-Aug-29 20:05 090 2 gusting 5 23.9
2015-Aug-29 20:00 270 4 gusting 6 24.4
2015-Aug-29 19:55 24.4
2015-Aug-29 19:50 24.4
2015-Aug-29 19:45 090 5 gusting 7 24.4
2015-Aug-29 19:40 337 5 gusting 8 23.9
2015-Aug-29 19:35 022 3 gusting 6 24.4
2015-Aug-29 19:30 045 3 gusting 6 23.9
2015-Aug-29 19:25 23.9
2015-Aug-29 19:20 045 9 gusting 14 24.4
2015-Aug-29 19:15 045 6 gusting 11 24.4
2015-Aug-29 19:10 24.4
2015-Aug-29 19:05 022 5 gusting 11 24.4
2015-Aug-29 19:00 022 6 gusting 13 24.4
2015-Aug-29 18:55 022 8 gusting 12 24.4
2015-Aug-29 18:50 022 7 gusting 13 24.4
2015-Aug-29 18:45 337 10 gusting 13 24.4
2015-Aug-29 18:40 24.4
2015-Aug-29 18:35 045 9 gusting 14 24.4
2015-Aug-29 18:30 022 13 gusting 21 24.4
2015-Aug-29 18:25 022 6 gusting 11 24.4
2015-Aug-29 18:20 045 7 gusting 18 24.4
2015-Aug-29 18:15 045 9 gusting 13 24.4
2015-Aug-29 18:10 067 10 gusting 18 25.0
2015-Aug-29 18:05 022 6 gusting 9 25.0
2015-Aug-29 18:00 045 8 gusting 13 25.0
2015-Aug-29 17:55 022 13 gusting 19 25.0
2015-Aug-29 17:50 045 11 gusting 15 25.0
2015-Aug-29 17:45 25.0
2015-Aug-29 17:40 25.0
2015-Aug-29 17:35 25.0
2015-Aug-29 17:30 315 8 gusting 15 25.0
2015-Aug-29 17:25 25.0
2015-Aug-29 17:20 045 6 gusting 10 25.0
2015-Aug-29 17:15 25.0
2015-Aug-29 17:10 090 7 gusting 14 25.0
2015-Aug-29 17:05 022 5 gusting 9 25.0
2015-Aug-29 17:00 022 7 gusting 13 25.0
2015-Aug-29 16:55 045 9 gusting 13 25.0
2015-Aug-29 16:50 337 3 gusting 6 25.6
2015-Aug-29 16:45 022 5 gusting 9 25.6
2015-Aug-29 16:40 022 7 gusting 11 26.1
2015-Aug-29 16:35 337 4 gusting 8 26.1
2015-Aug-29 16:30 045 4 gusting 6 26.7
2015-Aug-29 16:25 337 3 gusting 6 26.7
2015-Aug-29 16:20 045 5 gusting 6 26.7
2015-Aug-29 16:15 022 6 gusting 11 27.2
2015-Aug-29 16:10 045 8 gusting 13 27.2
2015-Aug-29 16:05 045 6 gusting 13 27.8
2015-Aug-29 16:00 022 9 gusting 13 27.8
2015-Aug-29 15:55 022 7 gusting 13 28.3
2015-Aug-29 15:50 337 5 gusting 10 28.3
2015-Aug-29 15:45 045 11 gusting 15 28.3
2015-Aug-29 15:40 28.3
2015-Aug-29 15:35 090 3 gusting 6 28.9
2015-Aug-29 15:30 28.9
2015-Aug-29 15:25 022 10 gusting 13 28.9
2015-Aug-29 15:20 28.9
2015-Aug-29 15:15 045 7 gusting 13 28.9
2015-Aug-29 15:10 045 9 gusting 14 28.9
2015-Aug-29 15:05 067 9 gusting 13 29.4
2015-Aug-29 15:00 022 6 gusting 11 29.4
2015-Aug-29 14:55 045 8 gusting 13 29.4
2015-Aug-29 14:50 022 6 gusting 10 30.0
2015-Aug-29 14:45 022 6 gusting 9 30.0
2015-Aug-29 14:40 022 6 gusting 13 30.0
2015-Aug-29 14:35 30.0
2015-Aug-29 14:30 30.0
2015-Aug-29 14:25 045 7 gusting 12 30.0
2015-Aug-29 14:20 337 11 gusting 16 30.6
2015-Aug-29 14:15 090 6 gusting 11 30.6
2015-Aug-29 14:10 090 6 gusting 8 30.6
2015-Aug-29 14:05 30.6
2015-Aug-29 14:00 067 7 gusting 12 30.6
2015-Aug-29 13:55 30.6
2015-Aug-29 13:50 022 10 gusting 16 30.6
2015-Aug-29 13:45 045 9 gusting 13 30.0
2015-Aug-29 13:40 30.0
2015-Aug-29 13:35 30.6
2015-Aug-29 13:30 30.6
2015-Aug-29 13:25 045 10 gusting 13 30.6
2015-Aug-29 13:20 022 14 gusting 19 30.0
2015-Aug-29 13:15 045 13 gusting 19 30.6
2015-Aug-29 13:10 30.6
2015-Aug-29 13:05 30.6
2015-Aug-29 13:00 30.6
2015-Aug-29 12:55 045 16 gusting 22 31.1
2015-Aug-29 12:50 31.1
2015-Aug-29 12:45 045 6 gusting 8 30.6
2015-Aug-29 12:40 045 8 gusting 13 30.6
2015-Aug-29 12:35 067 13 gusting 16 31.1
2015-Aug-29 12:30 045 11 gusting 14 31.1
2015-Aug-29 12:25 31.7
2015-Aug-29 12:20 022 7 gusting 11 31.1
2015-Aug-29 12:15 022 7 gusting 12 30.6
2015-Aug-29 12:10 045 10 gusting 20 30.6
2015-Aug-29 12:05 31.1
2015-Aug-29 12:00 30.6
2015-Aug-29 11:55 30.6
2015-Aug-29 11:50 022 15 gusting 20 30.6
2015-Aug-29 11:45 090 9 gusting 13 30.6
2015-Aug-29 11:40 30.6
2015-Aug-29 11:35 30.6
2015-Aug-29 11:30 090 10 gusting 13 30.6
2015-Aug-29 11:25 067 10 gusting 17 30.6
2015-Aug-29 11:20 045 9 gusting 18 30.6
2015-Aug-29 11:15 045 11 gusting 19 30.6
2015-Aug-29 11:10 30.6
2015-Aug-29 11:05 022 11 gusting 17 31.1
2015-Aug-29 11:00 045 7 gusting 16 31.1
2015-Aug-29 10:55 045 9 gusting 19 31.1
2015-Aug-29 10:50 090 8 gusting 13 31.1
2015-Aug-29 10:45 045 8 gusting 17 31.1
2015-Aug-29 10:40 022 10 gusting 17 31.1
2015-Aug-29 10:35 022 7 gusting 18 31.1
2015-Aug-29 10:30 31.1
2015-Aug-29 10:25 31.1
2015-Aug-29 10:20 045 5 gusting 10 30.6
2015-Aug-29 10:15 31.1
2015-Aug-29 10:10 090 11 gusting 16 30.6
2015-Aug-29 10:05 337 11 gusting 16 30.6
2015-Aug-29 10:00 045 8 gusting 13 30.0
2015-Aug-29 09:55 045 11 gusting 15 30.0
2015-Aug-29 09:50 180 11 gusting 19 29.4
2015-Aug-29 09:45 045 13 gusting 22 29.4
2015-Aug-29 09:40 045 11 gusting 16 29.4
2015-Aug-29 09:35 337 16 gusting 19 29.4
2015-Aug-29 09:30 045 12 gusting 19 30.0
2015-Aug-29 09:25 045 16 gusting 25 29.4
2015-Aug-29 09:20 022 14 gusting 19 29.4
2015-Aug-29 09:15 29.4
2015-Aug-29 09:10 067 12 gusting 16 29.4
2015-Aug-29 09:05 29.4
2015-Aug-29 09:00 045 15 gusting 21 29.4
2015-Aug-29 08:55 29.4
2015-Aug-29 08:50 022 10 gusting 19 29.4
2015-Aug-29 08:45 022 10 gusting 17 29.4
2015-Aug-29 08:40 225 11 gusting 17 29.4
2015-Aug-29 08:35 28.9
2015-Aug-29 08:30 045 13 gusting 22 28.9
2015-Aug-29 08:25 045 10 gusting 15 28.9
2015-Aug-29 08:20 29.4
2015-Aug-29 08:15 045 4 gusting 12 29.4
2015-Aug-29 08:10 022 7 gusting 16 29.4
2015-Aug-29 08:05 315 5 gusting 10 28.9
2015-Aug-29 08:00 045 11 gusting 16 28.9
2015-Aug-29 07:55 28.3
2015-Aug-29 07:50 28.3
2015-Aug-29 07:45 337 11 gusting 18 28.3
2015-Aug-29 07:40 067 9 gusting 19 28.3
2015-Aug-29 07:35 022 6 gusting 13 28.3
2015-Aug-29 07:30 27.8
2015-Aug-29 07:25 045 12 gusting 17 27.8
2015-Aug-29 07:20 067 10 gusting 16 27.8
2015-Aug-29 07:15 045 11 gusting 17 27.8
2015-Aug-29 07:10 045 12 gusting 17 27.8
2015-Aug-29 07:05 27.8
2015-Aug-29 07:00 270 7 gusting 13 27.2
2015-Aug-29 06:55 27.8
2015-Aug-29 06:50 337 8 gusting 13 27.8
2015-Aug-29 06:45 27.2
2015-Aug-29 06:40 090 6 gusting 10 27.2
2015-Aug-29 06:35 022 7 gusting 13 27.2
2015-Aug-29 06:30 045 8 gusting 16 26.7
2015-Aug-29 06:25 045 13 gusting 20 26.7
2015-Aug-29 06:20 045 7 gusting 11 26.7
2015-Aug-29 06:15 022 12 gusting 24 26.7
2015-Aug-29 06:10 26.7
2015-Aug-29 06:05 045 7 gusting 14 26.7
2015-Aug-29 06:00 337 8 gusting 13 26.1
2015-Aug-29 05:55 022 6 gusting 13 26.1
2015-Aug-29 05:50 022 10 gusting 18 26.1
2015-Aug-29 05:45 25.6
2015-Aug-29 05:40 25.6
2015-Aug-29 05:35 315 13 gusting 19 25.0
2015-Aug-29 05:30 337 8 gusting 13 25.0
2015-Aug-29 05:25 337 10 gusting 17 25.0
2015-Aug-29 05:20 022 12 gusting 16 25.0
2015-Aug-29 05:15 25.0
2015-Aug-29 05:10 045 9 gusting 16 25.0
2015-Aug-29 05:05 022 3 gusting 7 24.4
2015-Aug-29 05:00 315 7 gusting 13 24.4
2015-Aug-29 04:55 23.9
2015-Aug-29 04:50 067 8 gusting 15 23.9
2015-Aug-29 04:45 067 4 gusting 11 23.9
2015-Aug-29 04:40 23.3
2015-Aug-29 04:35 23.3
2015-Aug-29 04:30 315 5 gusting 7 22.8
2015-Aug-29 04:25 292 3 gusting 5 22.2
2015-Aug-29 04:20 045 3 gusting 6 22.2
2015-Aug-29 04:15 292 5 gusting 8 22.2
2015-Aug-29 04:10 315 4 gusting 9 22.2
2015-Aug-29 04:05 21.7
2015-Aug-29 04:00 21.7
2015-Aug-29 03:55 315 6 gusting 12 21.7
2015-Aug-29 03:50 21.7
2015-Aug-29 03:45 022 6 gusting 10 21.7
2015-Aug-29 03:40 22.2
2015-Aug-29 03:35 022 6 gusting 9 21.7
2015-Aug-29 03:30 21.7
2015-Aug-29 03:25 21.7
2015-Aug-29 03:20 292 5 gusting 9 21.7
2015-Aug-29 03:15 270 6 gusting 11 21.7
2015-Aug-29 03:10 315 5 gusting 8 21.7
2015-Aug-29 03:05 337 5 gusting 6 22.2
2015-Aug-29 03:00 247 5 gusting 6 22.2
2015-Aug-29 02:55 045 5 gusting 12 22.2
2015-Aug-29 02:50 21.7
2015-Aug-29 02:45 045 5 gusting 6 21.7
2015-Aug-29 02:40 067 6 gusting 8 21.7
2015-Aug-29 02:35 21.7
2015-Aug-29 02:30 315 2 gusting 6 21.7
2015-Aug-29 02:25 21.7
2015-Aug-29 02:20 337 4 gusting 6 21.7
2015-Aug-29 02:15 21.7
2015-Aug-29 02:10 21.7
2015-Aug-29 02:05 022 2 gusting 6 21.7
2015-Aug-29 02:00 022 6 gusting 12 21.7
2015-Aug-29 01:55 270 5 gusting 9 21.7
2015-Aug-29 01:50 21.7
2015-Aug-29 01:45 022 4 gusting 8 22.2
2015-Aug-29 01:40 22.2
2015-Aug-29 01:35 337 2 gusting 3 22.2
2015-Aug-29 01:30 090 4 gusting 10 22.2
2015-Aug-29 01:25 315 2 gusting 6 22.2
2015-Aug-29 01:20 315 2 gusting 4 22.2
2015-Aug-29 01:15 045 6 gusting 11 22.2
2015-Aug-29 01:10 180 2 gusting 5 22.2
2015-Aug-29 01:05 180 2 gusting 4 22.2
2015-Aug-29 01:00 315 3 gusting 6 22.2
2015-Aug-29 00:55 22.2
2015-Aug-29 00:50 22.2
2015-Aug-29 00:45 22.2
2015-Aug-29 00:40 090 6 gusting 10 22.2
2015-Aug-29 00:35 022 5 gusting 10 22.2
2015-Aug-29 00:30 090 5 gusting 11 22.2
2015-Aug-29 00:25 337 2 gusting 5 22.2
2015-Aug-29 00:20 045 3 gusting 6 22.2
2015-Aug-29 00:15 135 3 gusting 7 22.2
2015-Aug-29 00:10 292 2 gusting 6 22.2
2015-Aug-29 00:05 270 1 gusting 5 22.2
2015-Aug-29 00:00 337 5 gusting 12 22.2
2015-Aug-28 23:55 157 1 gusting 5 22.2
2015-Aug-28 23:50 225 1 gusting 2 22.2
2015-Aug-28 23:45 135 4 gusting 7 22.2
2015-Aug-28 23:40 337 6 gusting 13 22.2
2015-Aug-28 23:35 022 4 gusting 7 22.2
2015-Aug-28 23:30 225 1 gusting 3 22.8
2015-Aug-28 23:25 157 6 gusting 14 22.8
2015-Aug-28 23:20 180 1 gusting 3 22.8
2015-Aug-28 23:15 045 3 gusting 6 22.8
2015-Aug-28 23:10 022 7 gusting 10 22.8
2015-Aug-28 23:05 22.8
2015-Aug-28 23:00 045 8 gusting 13 22.8
2015-Aug-28 22:55 22.8
2015-Aug-28 22:50 22.8
2015-Aug-28 22:45 22.2
2015-Aug-28 22:40 022 3 gusting 5 22.2
2015-Aug-28 22:35 22.8
2015-Aug-28 22:30 270 2 gusting 3 22.8
2015-Aug-28 22:25 225 1 gusting 2 22.8
2015-Aug-28 22:20 202 2 gusting 3 22.8
2015-Aug-28 22:15 180 5 gusting 7 22.8
2015-Aug-28 22:10 292 2 gusting 3 22.8
2015-Aug-28 22:05 270 1 gusting 3 22.8
2015-Aug-28 22:00 180 3 gusting 6 23.3
2015-Aug-28 21:55 045 2 gusting 5 23.3
2015-Aug-28 21:50 22.8
2015-Aug-28 21:45 112 2 gusting 3 23.3
2015-Aug-28 21:40 337 2 gusting 3 23.3
2015-Aug-28 21:35 180 4 gusting 9 23.3
2015-Aug-28 21:30 022 6 gusting 11 23.3
2015-Aug-28 21:25 135 3 gusting 6 22.8
2015-Aug-28 21:20 22.8
2015-Aug-28 21:15 180 1 gusting 4 22.2
2015-Aug-28 21:10 247 1 gusting 4 22.2
2015-Aug-28 21:05 270 2 gusting 4 22.2
2015-Aug-28 21:00 247 5 gusting 6 22.2
2015-Aug-28 20:55 225 2 gusting 3 22.2
2015-Aug-28 20:50 22.8
2015-Aug-28 20:45 315 1 gusting 4 22.8
2015-Aug-28 20:40 202 2 gusting 4 23.3
2015-Aug-28 20:35 022 4 gusting 6 23.3
2015-Aug-28 20:30 157 0 gusting 2 23.3
2015-Aug-28 20:25 23.3
2015-Aug-28 20:20 337 6 gusting 10 23.3
2015-Aug-28 20:15 022 5 gusting 8 22.8
2015-Aug-28 20:10 202 3 gusting 4 22.8
2015-Aug-28 20:05 292 2 gusting 4 23.3
2015-Aug-28 20:00 292 2 gusting 6 23.3
2015-Aug-28 19:55 180 1 gusting 2 23.3
2015-Aug-28 19:50 225 5 gusting 6 23.3
2015-Aug-28 19:45 337 5 gusting 10 22.8
2015-Aug-28 19:40 202 0 gusting 2 23.3
2015-Aug-28 19:35 157 3 gusting 5 23.3
2015-Aug-28 19:30 337 4 gusting 6 23.3
2015-Aug-28 19:25 045 3 gusting 7 23.3
2015-Aug-28 19:20 135 2 gusting 4 23.3
2015-Aug-28 19:15 270 2 gusting 5 23.9
2015-Aug-28 19:10 337 6 gusting 10 23.9
2015-Aug-28 19:05 090 3 gusting 6 23.9
2015-Aug-28 19:00 23.3
2015-Aug-28 18:55 23.3
2015-Aug-28 18:50 022 7 gusting 13 23.3
2015-Aug-28 18:45 23.3
2015-Aug-28 18:40 022 5 gusting 9 23.3
2015-Aug-28 18:35 315 0 gusting 2 23.3
2015-Aug-28 18:30 067 3 gusting 6 23.3
2015-Aug-28 18:25 292 2 gusting 5 23.3
2015-Aug-28 18:20 23.3
2015-Aug-28 18:15 090 4 gusting 6 23.3
2015-Aug-28 18:10 022 6 gusting 10 22.8
2015-Aug-28 18:05 270 2 gusting 5 23.3
2015-Aug-28 18:00 315 1 gusting 4 23.3
2015-Aug-28 17:55 23.3
2015-Aug-28 17:50 022 3 gusting 6 23.3
2015-Aug-28 17:45 292 2 gusting 3 23.3
2015-Aug-28 17:40 23.3
2015-Aug-28 17:35 337 2 gusting 3 23.3
2015-Aug-28 17:30 23.9
2015-Aug-28 17:25 337 6 gusting 8 23.9
2015-Aug-28 17:20 337 4 gusting 6 23.9
2015-Aug-28 17:15 23.9
2015-Aug-28 17:10 292 3 gusting 6 23.9
2015-Aug-28 17:05 24.4
2015-Aug-28 17:00 022 4 gusting 6 25.0
2015-Aug-28 16:55 090 3 gusting 7 25.0
2015-Aug-28 16:50 337 4 gusting 8 25.6
2015-Aug-28 16:45 315 4 gusting 7 25.6
2015-Aug-28 16:40 26.1
2015-Aug-28 16:35 26.1
2015-Aug-28 16:30 315 6 gusting 9 26.1
2015-Aug-28 16:25 26.7
2015-Aug-28 16:20 26.7
2015-Aug-28 16:15 315 2 gusting 5 27.2
2015-Aug-28 16:10 27.2
2015-Aug-28 16:05 112 9 gusting 13 27.8
2015-Aug-28 16:00 022 7 gusting 11 28.3
2015-Aug-28 15:55 090 5 gusting 10 28.3
2015-Aug-28 15:50 315 6 gusting 10 28.3
2015-Aug-28 15:45 045 5 gusting 8 28.3
2015-Aug-28 15:40 045 5 gusting 9 28.9
2015-Aug-28 15:35 022 4 gusting 7 28.9
2015-Aug-28 15:30 022 8 gusting 12 28.9
2015-Aug-28 15:25 270 5 gusting 11 28.9
2015-Aug-28 15:20 045 3 gusting 9 29.4
2015-Aug-28 15:15 292 3 gusting 6 28.9
2015-Aug-28 15:10 045 7 gusting 16 29.4
2015-Aug-28 15:05 29.4
2015-Aug-28 15:00 090 6 gusting 8 29.4
2015-Aug-28 14:55 045 6 gusting 10 29.4
2015-Aug-28 14:50 30.0
2015-Aug-28 14:45 337 5 gusting 7 30.0
2015-Aug-28 14:40 30.0
2015-Aug-28 14:35 337 4 gusting 8 30.0
2015-Aug-28 14:30 337 8 gusting 13 30.0
2015-Aug-28 14:25 045 7 gusting 14 30.0
2015-Aug-28 14:20 180 6 gusting 11 30.0
2015-Aug-28 14:15 337 5 gusting 8 30.0
2015-Aug-28 14:10 045 9 gusting 13 30.0
2015-Aug-28 14:05 337 6 gusting 8 30.0
2015-Aug-28 14:00 067 9 gusting 13 30.0
2015-Aug-28 13:55 112 5 gusting 10 30.6
2015-Aug-28 13:50 30.6
2015-Aug-28 13:45 022 11 gusting 21 30.6
2015-Aug-28 13:40 30.6
2015-Aug-28 13:35 30.6
2015-Aug-28 13:30 31.1
2015-Aug-28 13:25 090 5 gusting 9 31.1
2015-Aug-28 13:20 022 10 gusting 15 31.1
2015-Aug-28 13:15 337 5 gusting 10 31.1
2015-Aug-28 13:10 045 4 gusting 10 31.1
2015-Aug-28 13:05 045 9 gusting 16 30.6
2015-Aug-28 13:00 31.1
2015-Aug-28 12:55 30.6
2015-Aug-28 12:50 30.6
2015-Aug-28 12:45 337 8 gusting 13 31.1
2015-Aug-28 12:40 045 3 gusting 6 31.1
2015-Aug-28 12:35 045 4 gusting 8 31.1
2015-Aug-28 12:30 337 8 gusting 13 31.1
2015-Aug-28 12:25 045 4 gusting 6 31.1
2015-Aug-28 12:20 090 10 gusting 15 31.7
2015-Aug-28 12:15 090 6 gusting 11 31.7
2015-Aug-28 12:10 135 6 gusting 10 31.7
2015-Aug-28 12:05 32.2
2015-Aug-28 12:00 090 7 gusting 13 32.2
2015-Aug-28 11:55 112 2 gusting 5 32.2
2015-Aug-28 11:50 157 6 gusting 10 31.7
2015-Aug-28 11:45 315 4 gusting 9 31.7
2015-Aug-28 11:40 045 6 gusting 8 32.2
2015-Aug-28 11:35 045 5 gusting 9 32.2
2015-Aug-28 11:30 112 4 gusting 6 32.2
2015-Aug-28 11:25 090 4 gusting 8 32.2
2015-Aug-28 11:20 090 1 gusting 4 32.2
2015-Aug-28 11:15 202 8 gusting 13 32.2
2015-Aug-28 11:10 225 2 gusting 4 31.7
2015-Aug-28 11:05 31.7
2015-Aug-28 11:00 067 8 gusting 13 31.7
2015-Aug-28 10:55 022 7 gusting 14 31.7
2015-Aug-28 10:50 31.7
2015-Aug-28 10:45 31.7
2015-Aug-28 10:40 32.2
2015-Aug-28 10:35 32.2
2015-Aug-28 10:30 315 6 gusting 10 31.7
2015-Aug-28 10:25 157 3 gusting 6 31.7
2015-Aug-28 10:20 315 6 gusting 13 31.7
2015-Aug-28 10:15 045 6 gusting 11 31.1
2015-Aug-28 10:10 337 8 gusting 10 31.1
2015-Aug-28 10:05 022 12 gusting 19 31.1
2015-Aug-28 10:00 067 5 gusting 8 31.1
2015-Aug-28 09:55 022 8 gusting 13 31.1
2015-Aug-28 09:50 30.6
2015-Aug-28 09:45 315 9 gusting 13 30.6
2015-Aug-28 09:40 31.1
2015-Aug-28 09:35 30.6
2015-Aug-28 09:30 022 10 gusting 19 31.1
2015-Aug-28 09:25 31.7
2015-Aug-28 09:20 135 4 gusting 7 31.7
2015-Aug-28 09:15 045 5 gusting 8 31.7
2015-Aug-28 09:10 045 11 gusting 14 31.1
2015-Aug-28 09:05 045 5 gusting 9 31.1
2015-Aug-28 09:00 337 6 gusting 15 31.1
2015-Aug-28 08:55 022 4 gusting 9 31.1
2015-Aug-28 08:50 022 10 gusting 17 31.7
2015-Aug-28 08:45 31.7
2015-Aug-28 08:40 31.7
2015-Aug-28 08:35 337 3 gusting 5 31.1
2015-Aug-28 08:30 022 6 gusting 15 31.1
2015-Aug-28 08:25 045 6 gusting 10 30.6
2015-Aug-28 08:20 337 3 gusting 6 30.6
2015-Aug-28 08:15 022 7 gusting 10 30.6
2015-Aug-28 08:10 30.6
2015-Aug-28 08:05 30.0
2015-Aug-28 08:00 045 3 gusting 5 29.4
2015-Aug-28 07:55 28.9
2015-Aug-28 07:50 045 6 gusting 12 28.9
2015-Aug-28 07:45 28.9
2015-Aug-28 07:40 337 5 gusting 9 28.3
2015-Aug-28 07:35 202 6 gusting 9 28.3
2015-Aug-28 07:30 28.3
2015-Aug-28 07:25 337 6 gusting 11 27.8
2015-Aug-28 07:20 27.8
2015-Aug-28 07:15 27.8
2015-Aug-28 07:10 292 6 gusting 12 27.2
2015-Aug-28 07:05 045 7 gusting 11 27.2
2015-Aug-28 07:00 022 7 gusting 12 27.2
2015-Aug-28 06:55 315 7 gusting 13 27.8
2015-Aug-28 06:50 27.2
2015-Aug-28 06:45 315 5 gusting 9 27.2
2015-Aug-28 06:40 067 2 gusting 5 26.7
2015-Aug-28 06:35 022 7 gusting 10 26.7
2015-Aug-28 06:30 022 5 gusting 7 26.7
2015-Aug-28 06:25 26.1
2015-Aug-28 06:20 045 3 gusting 6 26.1
2015-Aug-28 06:15 26.1
2015-Aug-28 06:10 292 6 gusting 8 26.1
2015-Aug-28 06:05 26.1
2015-Aug-28 06:00 315 2 gusting 4 26.1
2015-Aug-28 05:55 112 7 gusting 11 25.6
2015-Aug-28 05:50 135 3 gusting 6 25.6
2015-Aug-28 05:45 315 6 gusting 8 25.0
2015-Aug-28 05:40 022 6 gusting 9 25.0
2015-Aug-28 05:35 045 4 gusting 8 24.4
2015-Aug-28 05:30 157 6 gusting 10 24.4
2015-Aug-28 05:25 24.4
2015-Aug-28 05:20 022 6 gusting 9 23.9
2015-Aug-28 05:15 045 6 gusting 10 23.9
2015-Aug-28 05:10 23.9
2015-Aug-28 05:05 067 5 gusting 6 23.3
2015-Aug-28 05:00 270 1 gusting 3 23.3